createdAt,value
2023-02-02T00:20:27.460Z,95452.00
2023-02-02T00:21:27.523Z,95448.00
2023-02-02T00:22:27.544Z,95444.00
2023-02-02T00:23:27.582Z,95452.00
2023-02-02T00:24:27.621Z,95452.00
2023-02-02T00:26:27.675Z,95448.00
2023-02-02T00:27:27.705Z,95450.00
2023-02-02T00:28:27.737Z,95446.00
2023-02-02T00:29:27.714Z,95462.00
2023-02-02T00:30:27.788Z,95458.00
2023-02-02T01:59:30.667Z,95473.00
2023-02-02T02:00:30.666Z,95473.00
2023-02-02T02:01:30.752Z,95471.00
2023-02-02T02:02:30.811Z,95473.00
2023-02-02T02:03:30.730Z,95497.00
2023-02-02T02:04:30.707Z,95483.00
2023-02-02T02:05:30.709Z,95483.00
2023-02-02T02:06:30.704Z,95489.00
2023-02-02T02:07:30.709Z,95479.00
2023-02-02T02:08:30.742Z,95491.00
2023-02-02T02:09:30.780Z,95493.00
2023-02-02T02:10:30.770Z,95499.00
2023-02-02T02:11:30.809Z,95495.00
2023-02-02T02:12:30.848Z,95493.00
2023-02-02T02:13:30.842Z,95487.00
2023-02-02T02:14:30.863Z,95483.00
2023-02-02T02:15:30.906Z,95491.00
2023-02-02T02:16:30.956Z,95485.00
2023-02-02T02:17:30.969Z,95485.00
2023-02-02T02:18:30.992Z,95485.00
2023-02-02T02:19:31.065Z,95475.00
2023-02-02T02:20:31.096Z,95467.00
2023-02-02T02:21:31.095Z,95481.00
2023-02-02T02:22:31.198Z,95473.00
2023-02-02T02:23:31.211Z,95467.00
2023-02-02T02:24:31.239Z,95465.00
2023-02-02T03:10:33.356Z,95452.00
2023-02-02T03:11:33.398Z,95452.00
2023-02-02T03:12:33.448Z,95444.00
2023-02-02T03:13:33.461Z,95450.00
2023-02-02T03:14:33.495Z,95450.00
2023-02-02T03:15:33.557Z,95452.00
2023-02-02T03:16:33.565Z,95454.00
2023-02-02T03:17:33.653Z,95450.00
2023-02-02T03:18:33.693Z,95444.00
2023-02-02T03:19:33.743Z,95448.00
2023-02-02T03:20:33.768Z,95450.00
2023-02-02T03:21:33.785Z,95456.00
2023-02-02T03:22:33.844Z,95458.00
2023-02-02T03:23:33.927Z,95450.00
2023-02-02T03:24:33.932Z,95452.00
2023-02-02T03:25:33.966Z,95444.00
2023-02-02T03:26:34.060Z,95450.00
2023-02-02T03:27:34.015Z,95446.00
2023-02-02T03:28:34.100Z,95444.00
2023-02-02T03:29:34.178Z,95442.00
2023-02-02T03:30:34.185Z,95442.00
2023-02-02T03:31:34.248Z,95442.00
2023-02-02T03:32:34.232Z,95444.00
2023-02-02T03:33:34.303Z,95438.00
2023-02-02T03:34:34.348Z,95446.00
2023-02-02T03:35:34.357Z,95452.00
2023-02-02T03:36:34.432Z,95452.00
2023-02-02T03:37:34.432Z,95448.00
2023-02-02T03:38:34.446Z,95446.00
2023-02-02T03:39:34.452Z,95450.00
2023-02-02T03:40:34.448Z,95450.00
2023-02-02T03:41:34.473Z,95450.00
2023-02-02T03:42:34.488Z,95458.00
2023-02-02T03:43:34.493Z,95462.00
2023-02-02T03:44:34.484Z,95458.00
2023-02-02T03:45:34.493Z,95462.00
2023-02-02T03:46:34.639Z,95467.00
2023-02-02T03:47:34.533Z,95462.00
2023-02-02T03:48:34.564Z,95458.00
2023-02-02T03:49:34.560Z,95465.00
2023-02-02T03:50:34.576Z,95463.00
2023-02-02T03:51:34.629Z,95462.00
2023-02-02T03:52:34.693Z,95460.00
2023-02-02T03:53:34.698Z,95462.00
2023-02-02T03:54:34.713Z,95454.00
2023-02-02T03:55:34.786Z,95462.00
2023-02-02T03:56:34.797Z,95460.00
2023-02-02T03:57:34.804Z,95465.00
2023-02-02T03:58:34.859Z,95465.00
2023-02-02T03:59:34.896Z,95462.00
2023-02-02T04:00:34.916Z,95460.00
2023-02-02T04:01:35.061Z,95454.00
2023-02-02T04:02:34.988Z,95456.00
2023-02-02T04:03:35.025Z,95460.00
2023-02-02T04:04:35.043Z,95456.00
2023-02-02T04:05:35.084Z,95462.00
2023-02-02T04:06:35.091Z,95463.00
2023-02-02T04:07:35.113Z,95462.00
2023-02-02T04:08:35.168Z,95462.00
2023-02-02T04:09:35.158Z,95456.00
2023-02-02T04:10:35.198Z,95462.00
2023-02-02T04:11:35.190Z,95462.00
2023-02-02T04:12:35.248Z,95462.00
2023-02-02T04:13:35.220Z,95462.00
2023-02-02T04:14:35.251Z,95460.00
2023-02-02T04:15:35.246Z,95465.00
2023-02-02T04:16:35.422Z,95462.00
2023-02-02T04:17:35.372Z,95462.00
2023-02-02T04:18:35.363Z,95465.00
2023-02-02T04:19:35.403Z,95467.00
2023-02-02T04:20:35.415Z,95460.00
2023-02-02T04:21:35.458Z,95460.00
2023-02-02T04:22:35.504Z,95463.00
2023-02-02T04:23:35.572Z,95463.00
2023-02-02T04:24:37.916Z,95465.00
2023-02-02T04:25:35.636Z,95458.00
2023-02-02T04:26:35.666Z,95454.00
2023-02-02T04:27:35.679Z,95475.00
2023-02-02T04:28:35.720Z,95469.00
2023-02-02T04:29:35.732Z,95469.00
2023-02-02T04:30:35.789Z,95471.00
2023-02-02T04:31:35.780Z,95475.00
2023-02-02T04:32:35.838Z,95497.00
2023-02-02T04:33:35.844Z,95469.00
2023-02-02T04:34:35.885Z,95460.00
2023-02-02T04:35:35.902Z,95495.00
2023-02-02T04:36:35.916Z,95481.00
2023-02-02T04:37:35.949Z,95483.00
2023-02-02T04:38:36.004Z,95528.00
2023-02-02T04:39:36.019Z,95458.00
2023-02-02T04:40:36.029Z,95475.00
2023-02-02T04:41:36.107Z,95485.00
2023-02-02T04:42:36.137Z,95493.00
2023-02-02T04:43:36.222Z,95495.00
2023-02-02T04:44:36.183Z,95493.00
2023-02-02T04:45:36.263Z,95487.00
2023-02-02T04:46:36.308Z,95512.00
2023-02-02T04:47:36.354Z,95514.00
2023-02-02T04:48:36.420Z,95505.00
2023-02-02T04:49:36.421Z,95522.00
2023-02-02T04:50:36.460Z,95501.00
2023-02-02T04:51:36.498Z,95505.00
2023-02-02T04:52:36.532Z,95509.00
2023-02-02T04:53:36.623Z,95510.00
2023-02-02T04:54:36.645Z,95510.00
2023-02-02T04:55:36.700Z,95514.00
2023-02-02T04:56:36.759Z,95507.00
2023-02-02T04:57:36.773Z,95507.00
2023-02-02T04:58:36.931Z,95512.00
2023-02-02T04:59:36.955Z,95509.00
2023-02-02T05:00:36.972Z,95516.00
2023-02-02T05:01:36.993Z,95516.00
2023-02-02T05:02:37.064Z,95509.00
2023-02-02T05:03:37.115Z,95518.00
2023-02-02T05:04:37.171Z,95514.00
2023-02-02T05:05:37.178Z,95512.00
2023-02-02T05:06:37.247Z,95509.00
2023-02-02T05:07:37.293Z,95514.00
2023-02-02T06:01:15.327Z,95514.00
2023-02-02T06:02:08.341Z,95507.00
2023-02-02T06:03:08.443Z,95514.00
2023-02-02T06:04:08.450Z,95514.00
2023-02-02T06:05:08.401Z,95518.00
2023-02-02T06:06:08.403Z,95510.00
2023-02-02T06:07:08.392Z,95516.00
2023-02-02T06:08:08.414Z,95518.00
2023-02-02T06:09:08.437Z,95526.00
2023-02-02T06:10:08.438Z,95520.00
2023-02-02T06:11:08.447Z,95522.00
2023-02-02T06:12:08.456Z,95518.00
2023-02-02T06:13:08.467Z,95518.00
2023-02-02T06:14:08.460Z,95514.00
2023-02-02T06:15:08.419Z,95512.00
2023-02-02T06:16:08.544Z,95507.00
2023-02-02T06:17:08.446Z,95507.00
2023-02-02T06:18:09.235Z,95507.00
2023-02-02T06:19:08.448Z,95514.00
2023-02-02T06:20:08.459Z,95514.00
2023-02-02T06:21:08.466Z,95507.00
2023-02-02T06:22:08.513Z,95505.00
2023-02-02T06:23:08.447Z,95509.00
2023-02-02T06:24:08.492Z,95510.00
2023-02-02T06:25:08.524Z,95514.00
2023-02-02T06:26:08.467Z,95510.00
2023-02-02T06:27:08.483Z,95512.00
2023-02-02T06:28:08.490Z,95520.00
2023-02-02T06:29:08.506Z,95514.00
2023-02-02T06:30:08.558Z,95509.00
2023-02-02T06:31:08.627Z,95507.00
2023-02-02T06:32:08.698Z,95507.00
2023-02-02T06:33:08.624Z,95507.00
2023-02-02T06:34:08.689Z,95509.00
2023-02-02T06:35:08.696Z,95522.00
2023-02-02T06:36:08.763Z,95530.00
2023-02-02T06:37:08.833Z,95530.00
2023-02-02T06:38:08.927Z,95528.00
2023-02-02T06:40:08.967Z,95526.00
2023-02-02T06:42:20.726Z,95542.00
2023-02-02T06:43:10.023Z,95534.00
2023-02-02T06:44:09.245Z,95530.00
2023-02-02T06:45:09.029Z,95532.00
2023-02-02T06:46:09.022Z,95542.00
2023-02-02T06:48:09.051Z,95544.00
2023-02-02T06:49:09.288Z,95546.00
2023-02-02T06:50:09.031Z,95546.00
2023-02-02T07:03:09.631Z,95567.00
2023-02-02T07:04:09.669Z,95573.00
2023-02-02T07:05:09.684Z,95571.00
2023-02-02T07:06:09.698Z,95567.00
2023-02-02T07:07:09.744Z,95571.00
2023-02-02T07:08:09.776Z,95571.00
2023-02-02T07:10:09.745Z,95567.00
2023-02-02T07:11:16.142Z,95571.00
2023-02-02T07:12:10.770Z,95571.00
2023-02-02T07:13:13.340Z,95563.00
2023-02-02T07:14:09.849Z,95573.00
2023-02-02T07:16:09.930Z,95577.00
2023-02-02T07:17:09.695Z,95571.00
2023-02-02T07:18:09.802Z,95567.00
2023-02-02T07:19:09.755Z,95583.00
2023-02-02T07:20:09.720Z,95573.00
2023-02-02T07:21:09.701Z,95575.00
2023-02-02T07:22:09.676Z,95577.00
2023-02-02T07:23:09.649Z,95575.00
2023-02-02T07:24:09.770Z,95581.00
2023-02-02T07:25:09.700Z,95575.00
2023-02-02T07:26:09.684Z,95571.00
2023-02-02T07:27:09.645Z,95579.00
2023-02-02T07:28:09.604Z,95575.00
2023-02-02T07:29:09.609Z,95579.00
2023-02-02T07:30:09.575Z,95583.00
2023-02-02T07:31:09.761Z,95583.00
2023-02-02T07:32:09.603Z,95585.00
2023-02-02T07:33:09.551Z,95595.00
2023-02-02T07:34:09.579Z,95587.00
2023-02-02T07:35:09.560Z,95593.00
2023-02-02T07:36:09.558Z,95595.00
2023-02-02T07:39:09.550Z,95595.00
2023-02-02T07:40:09.537Z,95597.00
2023-02-02T07:41:09.531Z,95593.00
2023-02-02T07:42:09.497Z,95601.00
2023-02-02T07:43:09.530Z,95599.00
2023-02-02T07:44:09.526Z,95604.00
2023-02-02T07:45:26.961Z,95606.00
2023-02-02T07:46:10.563Z,95606.00
2023-02-02T07:47:09.466Z,95601.00
2023-02-02T07:48:09.455Z,95601.00
2023-02-02T07:49:09.465Z,95608.00
2023-02-02T07:50:09.470Z,95610.00
2023-02-02T07:51:09.455Z,95612.00
2023-02-02T07:53:09.519Z,95616.00
2023-02-02T07:54:09.592Z,95616.00
2023-02-02T07:55:14.707Z,95610.00
2023-02-02T07:57:09.599Z,95614.00
2023-02-02T07:58:09.603Z,95618.00
2023-02-02T07:59:09.591Z,95616.00
2023-02-02T08:00:09.587Z,95608.00
2023-02-02T08:01:09.662Z,95608.00
2023-02-02T08:02:09.698Z,95608.00
2023-02-02T08:03:09.622Z,95616.00
2023-02-02T08:04:09.596Z,95616.00
2023-02-02T08:05:09.574Z,95610.00
2023-02-02T08:06:09.577Z,95606.00
2023-02-02T08:07:09.581Z,95608.00
2023-02-02T08:08:09.623Z,95610.00
2023-02-02T08:09:09.569Z,95604.00
2023-02-02T08:10:09.563Z,95606.00
2023-02-02T08:11:09.579Z,95614.00
2023-02-02T08:12:09.531Z,95610.00
2023-02-02T08:13:09.543Z,95614.00
2023-02-02T08:14:09.580Z,95620.00
2023-02-02T08:15:09.553Z,95622.00
2023-02-02T08:16:09.583Z,95624.00
2023-02-02T08:17:09.538Z,95624.00
2023-02-02T08:18:09.547Z,95618.00
2023-02-02T08:19:09.577Z,95610.00
2023-02-02T08:20:09.573Z,95616.00
2023-02-02T08:21:09.599Z,95610.00
2023-02-02T08:22:09.520Z,95608.00
2023-02-02T08:23:09.543Z,95610.00
2023-02-02T08:24:09.539Z,95608.00
2023-02-02T08:25:09.547Z,95606.00
2023-02-02T08:26:09.562Z,95608.00
2023-02-02T08:27:09.565Z,95612.00
2023-02-02T08:28:09.591Z,95618.00
2023-02-02T08:29:09.569Z,95620.00
2023-02-02T08:30:09.799Z,95616.00
2023-02-02T08:31:09.642Z,95618.00
2023-02-02T08:32:09.607Z,95616.00
2023-02-02T08:33:09.610Z,95618.00
2023-02-02T08:34:09.612Z,95618.00
2023-02-02T08:35:09.636Z,95618.00
2023-02-02T08:36:09.691Z,95614.00
2023-02-02T08:37:09.632Z,95612.00
2023-02-02T08:38:09.677Z,95610.00
2023-02-02T08:39:09.700Z,95608.00
2023-02-02T08:40:09.726Z,95608.00
2023-02-02T08:41:09.668Z,95608.00
2023-02-02T08:42:09.670Z,95606.00
2023-02-02T08:43:10.724Z,95606.00
2023-02-02T08:44:11.482Z,95608.00
2023-02-02T08:46:01.139Z,95610.00
2023-02-02T08:46:10.779Z,95616.00
2023-02-02T08:47:09.808Z,95614.00
2023-02-02T08:48:12.332Z,95616.00
2023-02-02T08:49:09.807Z,95608.00
2023-02-02T08:50:09.718Z,95599.00
2023-02-02T08:51:09.898Z,95608.00
2023-02-02T08:52:09.731Z,95618.00
2023-02-02T08:53:09.735Z,95610.00
2023-02-02T08:54:09.773Z,95610.00
2023-02-02T08:55:09.825Z,95614.00
2023-02-02T08:56:09.772Z,95620.00
2023-02-02T08:57:09.811Z,95626.00
2023-02-02T08:58:09.843Z,95622.00
2023-02-02T08:59:09.802Z,95620.00
2023-02-02T09:00:09.799Z,95630.00
2023-02-02T09:01:09.853Z,95630.00
2023-02-02T09:02:09.836Z,95632.00
2023-02-02T09:03:09.827Z,95634.00
2023-02-02T09:04:09.833Z,95630.00
2023-02-02T09:05:09.830Z,95632.00
2023-02-02T09:06:09.848Z,95638.00
2023-02-02T09:07:09.805Z,95632.00
2023-02-02T09:08:09.843Z,95640.00
2023-02-02T09:09:09.787Z,95644.00
2023-02-02T09:10:09.839Z,95642.00
2023-02-02T09:11:09.834Z,95640.00
2023-02-02T09:12:09.821Z,95634.00
2023-02-02T09:13:09.777Z,95632.00
2023-02-02T09:14:09.852Z,95636.00
2023-02-02T09:15:09.784Z,95642.00
2023-02-02T09:16:09.877Z,95644.00
2023-02-02T09:17:09.806Z,95640.00
2023-02-02T09:18:09.795Z,95638.00
2023-02-02T09:19:09.811Z,95642.00
2023-02-02T09:20:09.786Z,95642.00
2023-02-02T09:21:09.853Z,95648.00
2023-02-02T09:22:09.779Z,95652.00
2023-02-02T09:23:09.797Z,95658.00
2023-02-02T09:24:09.772Z,95656.00
2023-02-02T09:25:09.750Z,95665.00
2023-02-02T09:26:09.737Z,95663.00
2023-02-02T09:27:09.743Z,95658.00
2023-02-02T09:28:09.744Z,95661.00
2023-02-02T09:29:09.755Z,95663.00
2023-02-02T09:30:09.707Z,95673.00
2023-02-02T09:31:09.916Z,95681.00
2023-02-02T09:32:09.753Z,95677.00
2023-02-02T09:33:09.681Z,95679.00
2023-02-02T09:34:09.823Z,95679.00
2023-02-02T09:35:09.726Z,95679.00
2023-02-02T09:36:09.830Z,95673.00
2023-02-02T09:37:09.675Z,95665.00
2023-02-02T09:38:09.695Z,95673.00
2023-02-02T09:39:09.682Z,95675.00
2023-02-02T09:40:09.681Z,95673.00
2023-02-02T09:41:09.725Z,95681.00
2023-02-02T09:42:09.666Z,95687.00
2023-02-02T09:43:09.675Z,95681.00
2023-02-02T09:44:09.699Z,95681.00
2023-02-02T09:45:09.654Z,95681.00
2023-02-02T09:46:09.703Z,95687.00
2023-02-02T09:47:09.641Z,95693.00
2023-02-02T09:48:09.644Z,95705.00
2023-02-02T09:49:09.678Z,95707.00
2023-02-02T09:50:09.726Z,95685.00
2023-02-02T09:51:09.798Z,95681.00
2023-02-02T09:52:09.854Z,95693.00
2023-02-02T09:53:09.912Z,95691.00
2023-02-02T09:55:09.965Z,95693.00
2023-02-02T09:56:10.049Z,95689.00
2023-02-02T09:57:10.003Z,95689.00
2023-02-02T09:58:10.049Z,95691.00
2023-02-02T09:59:19.057Z,95693.00
2023-02-02T10:00:11.057Z,95695.00
2023-02-02T10:01:10.120Z,95697.00
2023-02-02T10:02:10.079Z,95699.00
2023-02-02T10:03:10.096Z,95707.00
2023-02-02T10:04:10.076Z,95712.00
2023-02-02T10:05:10.069Z,95716.00
2023-02-02T10:06:10.103Z,95712.00
2023-02-02T10:07:10.036Z,95714.00
2023-02-02T10:08:10.006Z,95703.00
2023-02-02T10:09:10.043Z,95701.00
2023-02-02T10:10:10.069Z,95709.00
2023-02-02T10:11:10.151Z,95711.00
2023-02-02T10:12:10.162Z,95703.00
2023-02-02T10:13:10.252Z,95703.00
2023-02-02T10:14:10.248Z,95703.00
2023-02-02T10:15:10.264Z,95703.00
2023-02-02T10:16:10.332Z,95703.00
2023-02-02T10:17:10.872Z,95707.00
2023-02-02T10:18:10.430Z,95705.00
2023-02-02T10:19:10.503Z,95701.00
2023-02-02T10:20:10.506Z,95689.00
2023-02-02T10:21:10.550Z,95677.00
2023-02-02T10:22:10.590Z,95683.00
2023-02-02T10:23:10.647Z,95699.00
2023-02-02T10:24:10.665Z,95703.00
2023-02-02T10:25:10.704Z,95695.00
2023-02-02T10:26:10.711Z,95693.00
2023-02-02T10:27:10.834Z,95679.00
2023-02-02T10:28:10.839Z,95683.00
2023-02-02T10:29:10.879Z,95689.00
2023-02-02T10:30:10.969Z,95695.00
2023-02-02T10:31:11.058Z,95697.00
2023-02-02T10:32:11.396Z,95695.00
2023-02-02T10:33:11.093Z,95691.00
2023-02-02T10:34:11.119Z,95691.00
2023-02-02T10:35:14.186Z,95687.00
2023-02-02T10:36:11.171Z,95685.00
2023-02-02T10:37:11.378Z,95689.00
2023-02-02T10:38:11.181Z,95681.00
2023-02-02T10:39:11.121Z,95679.00
2023-02-02T10:40:11.265Z,95685.00
2023-02-02T10:41:11.121Z,95687.00
2023-02-02T10:42:11.379Z,95681.00
2023-02-02T10:43:11.129Z,95681.00
2023-02-02T10:44:11.118Z,95683.00
2023-02-02T10:45:11.123Z,95683.00
2023-02-02T10:46:11.176Z,95683.00
2023-02-02T10:47:11.152Z,95685.00
2023-02-02T10:48:11.110Z,95685.00
2023-02-02T10:49:11.133Z,95679.00
2023-02-02T10:50:11.165Z,95679.00
2023-02-02T10:51:11.139Z,95677.00
2023-02-02T10:52:11.371Z,95677.00
2023-02-02T10:53:11.844Z,95675.00
2023-02-02T10:54:11.153Z,95665.00
2023-02-02T10:55:11.133Z,95665.00
2023-02-02T10:56:11.222Z,95663.00
2023-02-02T10:57:11.360Z,95665.00
2023-02-02T10:58:11.197Z,95675.00
2023-02-02T10:59:11.188Z,95675.00
2023-02-02T11:00:11.172Z,95677.00
2023-02-02T11:01:11.180Z,95665.00
2023-02-02T11:02:20.404Z,95663.00
2023-02-02T11:03:12.217Z,95677.00
2023-02-02T11:04:11.177Z,95673.00
2023-02-02T11:05:11.219Z,95659.00
2023-02-02T11:06:11.174Z,95656.00
2023-02-02T11:07:11.168Z,95665.00
2023-02-02T11:08:11.154Z,95665.00
2023-02-02T11:09:11.147Z,95658.00
2023-02-02T11:10:11.148Z,95663.00
2023-02-02T11:11:11.224Z,95661.00
2023-02-02T11:12:11.363Z,95654.00
2023-02-02T11:13:11.217Z,95654.00
2023-02-02T11:14:11.190Z,95663.00
2023-02-02T11:15:11.179Z,95673.00
2023-02-02T11:16:11.205Z,95675.00
2023-02-02T11:17:11.427Z,95675.00
2023-02-02T11:18:11.213Z,95681.00
2023-02-02T11:19:11.302Z,95687.00
2023-02-02T11:20:11.331Z,95685.00
2023-02-02T11:21:11.404Z,95665.00
2023-02-02T11:22:11.428Z,95663.00
2023-02-02T11:23:11.473Z,95675.00
2023-02-02T11:24:11.463Z,95681.00
2023-02-02T11:25:11.555Z,95679.00
2023-02-02T11:26:11.571Z,95681.00
2023-02-02T11:27:11.932Z,95675.00
2023-02-02T11:28:11.729Z,95681.00
2023-02-02T11:29:11.778Z,95661.00
2023-02-02T11:30:11.832Z,95650.00
2023-02-02T11:31:11.936Z,95661.00
2023-02-02T11:32:12.422Z,95659.00
2023-02-02T11:33:12.062Z,95654.00
2023-02-02T11:34:12.178Z,95652.00
2023-02-02T11:35:12.246Z,95663.00
2023-02-02T11:36:12.285Z,95673.00
2023-02-02T11:37:12.365Z,95673.00
2023-02-02T11:38:12.437Z,95663.00
2023-02-02T11:39:12.538Z,95658.00
2023-02-02T11:40:12.544Z,95661.00
2023-02-02T11:41:12.614Z,95658.00
2023-02-02T11:42:12.918Z,95661.00
2023-02-02T11:43:12.709Z,95644.00
2023-02-02T11:44:12.725Z,95648.00
2023-02-02T11:45:12.807Z,95650.00
2023-02-02T11:46:12.871Z,95656.00
2023-02-02T11:47:12.887Z,95675.00
2023-02-02T11:48:12.937Z,95677.00
2023-02-02T11:49:12.969Z,95661.00
2023-02-02T11:50:12.996Z,95654.00
2023-02-02T11:51:13.078Z,95650.00
2023-02-02T11:52:13.067Z,95661.00
2023-02-02T11:53:13.128Z,95661.00
2023-02-02T11:54:13.143Z,95636.00
2023-02-02T11:55:13.147Z,95640.00
2023-02-02T11:56:13.181Z,95646.00
2023-02-02T11:57:13.150Z,95626.00
2023-02-02T11:58:13.201Z,95632.00
2023-02-02T11:59:13.207Z,95642.00
2023-02-02T12:00:13.263Z,95630.00
2023-02-02T12:01:13.293Z,95620.00
2023-02-02T12:02:13.356Z,95626.00
2023-02-02T12:03:13.737Z,95632.00
2023-02-02T12:04:13.520Z,95626.00
2023-02-02T12:05:13.506Z,95614.00
2023-02-02T12:06:14.405Z,95626.00
2023-02-02T12:07:13.546Z,95624.00
2023-02-02T12:08:13.575Z,95618.00
2023-02-02T12:09:13.611Z,95620.00
2023-02-02T12:10:13.613Z,95601.00
2023-02-02T12:11:13.635Z,95618.00
2023-02-02T12:12:13.706Z,95606.00
2023-02-02T12:13:13.692Z,95606.00
2023-02-02T12:14:13.720Z,95608.00
2023-02-02T12:15:13.791Z,95614.00
2023-02-02T12:16:13.801Z,95610.00
2023-02-02T12:17:13.777Z,95608.00
2023-02-02T12:18:13.831Z,95610.00
2023-02-02T12:19:13.879Z,95620.00
2023-02-02T12:20:13.882Z,95608.00
2023-02-02T12:21:13.874Z,95603.00
2023-02-02T12:22:13.909Z,95648.00
2023-02-02T12:23:13.952Z,95601.00
2023-02-02T12:24:13.970Z,95599.00
2023-02-02T12:25:13.956Z,95587.00
2023-02-02T12:26:14.013Z,95589.00
2023-02-02T12:27:14.428Z,95599.00
2023-02-02T12:28:14.128Z,95595.00
2023-02-02T12:29:14.200Z,95597.00
2023-02-02T12:30:14.260Z,95593.00
2023-02-02T12:31:14.460Z,95599.00
2023-02-02T12:32:14.431Z,95589.00
2023-02-02T12:33:14.442Z,95599.00
2023-02-02T12:34:14.494Z,95593.00
2023-02-02T12:35:14.512Z,95601.00
2023-02-02T12:36:14.672Z,95614.00
2023-02-02T12:37:14.917Z,95595.00
2023-02-02T12:38:14.717Z,95610.00
2023-02-02T12:39:14.769Z,95589.00
2023-02-02T12:40:14.842Z,95612.00
2023-02-02T12:41:14.939Z,95601.00
2023-02-02T12:42:15.013Z,95601.00
2023-02-02T12:43:15.092Z,95595.00
2023-02-02T12:44:15.118Z,95593.00
2023-02-02T12:45:15.164Z,95604.00
2023-02-02T12:46:15.260Z,95601.00
2023-02-02T12:47:15.293Z,95595.00
2023-02-02T12:48:15.359Z,95599.00
2023-02-02T12:49:15.351Z,95593.00
2023-02-02T12:50:15.379Z,95599.00
2023-02-02T12:51:15.424Z,95593.00
2023-02-02T12:52:15.523Z,95597.00
2023-02-02T12:53:15.571Z,95581.00
2023-02-02T12:54:32.558Z,95597.00
2023-02-02T12:55:16.617Z,95603.00
2023-02-02T12:56:15.623Z,95587.00
2023-02-02T12:57:15.659Z,95583.00
2023-02-02T12:58:15.684Z,95601.00
2023-02-02T12:59:15.680Z,95581.00
2023-02-02T13:00:15.737Z,95589.00
2023-02-02T13:01:15.781Z,95597.00
2023-02-02T13:02:15.884Z,95601.00
2023-02-02T13:03:15.790Z,95599.00
2023-02-02T13:04:15.792Z,95599.00
2023-02-02T13:05:15.813Z,95591.00
2023-02-02T13:06:15.966Z,95601.00
2023-02-02T13:07:15.889Z,95604.00
2023-02-02T13:08:15.918Z,95603.00
2023-02-02T13:09:17.362Z,95640.00
2023-02-02T13:10:16.033Z,95646.00
2023-02-02T13:11:16.157Z,95601.00
2023-02-02T13:12:16.225Z,95597.00
2023-02-02T13:13:16.307Z,95603.00
2023-02-02T13:14:16.480Z,95610.00
2023-02-02T13:15:16.518Z,95593.00
2023-02-02T13:16:16.630Z,95610.00
2023-02-02T13:17:16.668Z,95601.00
2023-02-02T13:18:16.726Z,95603.00
2023-02-02T13:19:16.769Z,95630.00
2023-02-02T13:20:16.854Z,95601.00
2023-02-02T13:21:16.953Z,95610.00
2023-02-02T13:22:16.976Z,95608.00
2023-02-02T13:27:17.543Z,95620.00
2023-02-02T13:44:18.398Z,95632.00
2023-02-02T13:45:18.440Z,95624.00
2023-02-02T13:46:18.637Z,95640.00
2023-02-02T13:47:18.659Z,95632.00
2023-02-02T13:48:18.721Z,95644.00
2023-02-02T13:49:18.783Z,95642.00
2023-02-02T13:50:18.857Z,95705.00
2023-02-02T13:51:18.953Z,95675.00
2023-02-02T13:52:19.033Z,95659.00
2023-02-02T13:53:19.144Z,95650.00
2023-02-02T13:54:19.202Z,95652.00
2023-02-02T13:58:19.567Z,95656.00
2023-02-02T14:07:20.741Z,95677.00
2023-02-02T14:14:21.217Z,95699.00
2023-02-02T14:33:22.983Z,95709.00
2023-02-02T14:34:23.066Z,95720.00
2023-02-02T14:35:23.387Z,95718.00
2023-02-02T14:36:23.240Z,95711.00
2023-02-02T14:37:23.389Z,95720.00
2023-02-02T14:38:23.464Z,95712.00
2023-02-02T14:39:23.534Z,95718.00
2023-02-02T14:40:23.648Z,95720.00
2023-02-02T14:41:23.783Z,95712.00
2023-02-02T14:42:23.851Z,95693.00
2023-02-02T14:43:23.952Z,95712.00
2023-02-02T14:44:24.064Z,95722.00
2023-02-02T14:45:24.554Z,95724.00
2023-02-02T14:46:24.335Z,95738.00
2023-02-02T14:47:24.386Z,95726.00
2023-02-02T14:48:24.469Z,95728.00
2023-02-02T14:49:24.565Z,95736.00
2023-02-02T14:50:24.670Z,95714.00
2023-02-02T14:51:24.735Z,95736.00
2023-02-02T14:52:24.858Z,95732.00
2023-02-02T14:53:24.960Z,95728.00
2023-02-02T14:54:25.122Z,95734.00
2023-02-02T14:55:25.418Z,95720.00
2023-02-02T14:56:25.271Z,95711.00
2023-02-02T14:57:25.517Z,95714.00
2023-02-02T14:58:25.460Z,95711.00
2023-02-02T14:59:25.509Z,95707.00
2023-02-02T15:00:25.630Z,95699.00
2023-02-02T15:01:25.790Z,95716.00
2023-02-02T15:02:25.887Z,95705.00
2023-02-02T15:03:25.938Z,95730.00
2023-02-02T15:04:25.997Z,95709.00
2023-02-02T15:05:26.493Z,95714.00
2023-02-02T15:06:26.245Z,95714.00
2023-02-02T15:07:26.331Z,95703.00
2023-02-02T15:08:26.423Z,95703.00
2023-02-02T15:09:26.506Z,95705.00
2023-02-02T15:10:26.595Z,95703.00
2023-02-02T15:11:26.703Z,95701.00
2023-02-02T15:12:26.965Z,95712.00
2023-02-02T15:13:26.826Z,95716.00
2023-02-02T15:14:26.915Z,95716.00
2023-02-02T15:15:27.448Z,95724.00
2023-02-02T15:16:27.128Z,95707.00
2023-02-02T15:17:27.247Z,95718.00
2023-02-02T15:18:27.316Z,95714.00
2023-02-02T15:19:27.369Z,95720.00
2023-02-02T15:20:27.480Z,95724.00
2023-02-02T15:21:27.574Z,95728.00
2023-02-02T15:22:27.599Z,95722.00
2023-02-02T15:23:27.707Z,95720.00
2023-02-02T15:24:27.768Z,95730.00
2023-02-02T15:25:28.103Z,95722.00
2023-02-02T15:26:27.961Z,95750.00
2023-02-02T15:27:28.005Z,95732.00
2023-02-02T15:28:28.078Z,95714.00
2023-02-02T15:29:28.118Z,95736.00
2023-02-02T15:30:28.218Z,95724.00
2023-02-02T15:31:28.398Z,95728.00
2023-02-02T15:32:28.436Z,95724.00
2023-02-02T15:33:28.513Z,95740.00
2023-02-02T15:34:28.591Z,95734.00
2023-02-02T15:35:28.695Z,95728.00
2023-02-02T15:36:28.782Z,95756.00
2023-02-02T15:37:28.925Z,95754.00
2023-02-02T15:38:29.019Z,95740.00
2023-02-02T15:39:29.077Z,95730.00
2023-02-02T15:40:29.232Z,95732.00
2023-02-02T15:41:29.344Z,95740.00
2023-02-02T15:42:29.424Z,95740.00
2023-02-02T15:43:29.516Z,95736.00
2023-02-02T15:44:29.626Z,95744.00
2023-02-02T15:45:29.829Z,95744.00
2023-02-02T15:46:29.810Z,95740.00
2023-02-02T15:47:29.912Z,95746.00
2023-02-02T15:48:30.121Z,95744.00
2023-02-02T15:49:35.127Z,95748.00
2023-02-02T15:50:31.147Z,95748.00
2023-02-02T15:51:30.241Z,95758.00
2023-02-02T15:52:30.264Z,95746.00
2023-02-02T15:53:30.294Z,95746.00
2023-02-02T15:54:30.335Z,95759.00
2023-02-02T15:55:30.403Z,95750.00
2023-02-02T15:56:30.443Z,95765.00
2023-02-02T15:57:30.513Z,95765.00
2023-02-02T15:58:30.562Z,95765.00
2023-02-02T15:59:30.540Z,95763.00
2023-02-02T16:00:30.664Z,95763.00
2023-02-02T16:01:30.617Z,95779.00
2023-02-02T16:02:30.705Z,95763.00
2023-02-02T16:03:30.717Z,95773.00
2023-02-02T16:04:30.864Z,95765.00
2023-02-02T16:05:30.886Z,95765.00
2023-02-02T16:06:30.966Z,95763.00
2023-02-02T16:07:31.073Z,95777.00
2023-02-02T16:08:31.139Z,95767.00
2023-02-02T16:09:31.249Z,95779.00
2023-02-02T16:10:31.415Z,95773.00
2023-02-02T16:27:33.018Z,95781.00
2023-02-02T16:28:33.026Z,95783.00
2023-02-02T16:29:33.098Z,95781.00
2023-02-02T16:30:33.205Z,95787.00
2023-02-02T16:31:33.240Z,95789.00
2023-02-02T16:32:33.295Z,95801.00
2023-02-02T16:33:33.361Z,95797.00
2023-02-02T16:34:33.406Z,95793.00
2023-02-02T16:35:33.442Z,95795.00
2023-02-02T16:36:33.507Z,95793.00
2023-02-02T16:37:33.588Z,95785.00
2023-02-02T16:38:33.673Z,95795.00
2023-02-02T16:39:33.711Z,95787.00
2023-02-02T16:40:33.800Z,95801.00
2023-02-02T16:41:34.012Z,95795.00
2023-02-02T16:42:33.934Z,95801.00
2023-02-02T16:43:34.034Z,95826.00
2023-02-02T16:44:34.096Z,95805.00